sensor_id;sensor_type;location;lat;lon;timestamp;pressure;altitude;pressure_sealevel;temperature;humidity
33454;BME280;39400;49.744;7.012;2022-08-19T00:02:12;95767.25;;;19.73;100.00
33454;BME280;39400;49.744;7.012;2022-08-19T00:04:40;95758.72;;;19.45;100.00
33454;BME280;39400;49.744;7.012;2022-08-19T00:07:07;95765.53;;;19.44;100.00
33454;BME280;39400;49.744;7.012;2022-08-19T00:09:34;95772.03;;;19.41;100.00
33454;BME280;39400;49.744;7.012;2022-08-19T00:12:02;95775.59;;;19.42;100.00
33454;BME280;39400;49.744;7.012;2022-08-19T00:14:29;95777.66;;;19.51;100.00
33454;BME280;39400;49.744;7.012;2022-08-19T00:17:00;95768.72;;;19.34;100.00
33454;BME280;39400;49.744;7.012;2022-08-19T00:19:27;95780.59;;;19.25;100.00
33454;BME280;39400;49.744;7.012;2022-08-19T00:21:55;95772.13;;;19.07;100.00
33454;BME280;39400;49.744;7.012;2022-08-19T00:24:23;95777.75;;;19.16;100.00
33454;BME280;39400;49.744;7.012;2022-08-19T00:26:51;95770.06;;;19.29;100.00
33454;BME280;39400;49.744;7.012;2022-08-19T00:29:20;95774.44;;;19.30;100.00
33454;BME280;39400;49.744;7.012;2022-08-19T00:31:48;95764.25;;;19.36;100.00
33454;BME280;39400;49.744;7.012;2022-08-19T00:34:16;95768.31;;;19.44;100.00
33454;BME280;39400;49.744;7.012;2022-08-19T00:36:44;95762.75;;;19.44;100.00
33454;BME280;39400;49.744;7.012;2022-08-19T00:39:12;95770.06;;;19.29;100.00
33454;BME280;39400;49.744;7.012;2022-08-19T00:41:40;95773.53;;;19.33;100.00
33454;BME280;39400;49.744;7.012;2022-08-19T00:44:11;95766.16;;;18.95;100.00
33454;BME280;39400;49.744;7.012;2022-08-19T00:46:41;95763.22;;;18.77;100.00
33454;BME280;39400;49.744;7.012;2022-08-19T00:49:14;95766.16;;;18.61;100.00
33454;BME280;39400;49.744;7.012;2022-08-19T00:51:45;95755.06;;;18.48;100.00
33454;BME280;39400;49.744;7.012;2022-08-19T00:54:14;95754.59;;;18.49;100.00
33454;BME280;39400;49.744;7.012;2022-08-19T00:56:42;95753.06;;;18.48;100.00
33454;BME280;39400;49.744;7.012;2022-08-19T00:59:10;95756.22;;;18.60;100.00
33454;BME280;39400;49.744;7.012;2022-08-19T01:01:41;95765.81;;;18.59;100.00
33454;BME280;39400;49.744;7.012;2022-08-19T01:04:09;95752.28;;;18.48;100.00
33454;BME280;39400;49.744;7.012;2022-08-19T01:06:38;95753.81;;;18.49;100.00
33454;BME280;39400;49.744;7.012;2022-08-19T01:09:07;95754.69;;;18.59;100.00
33454;BME280;39400;49.744;7.012;2022-08-19T01:11:38;95744.75;;;18.70;100.00
33454;BME280;39400;49.744;7.012;2022-08-19T01:14:08;95754.59;;;18.84;100.00
33454;BME280;39400;49.744;7.012;2022-08-19T01:16:37;95747.72;;;18.98;100.00
33454;BME280;39400;49.744;7.012;2022-08-19T01:19:36;95746.97;;;18.97;100.00
33454;BME280;39400;49.744;7.012;2022-08-19T01:24:49;95743.78;;;18.86;100.00
33454;BME280;39400;49.744;7.012;2022-08-19T01:27:17;95739.47;;;18.85;100.00
33454;BME280;39400;49.744;7.012;2022-08-19T01:29:46;95732.31;;;18.84;100.00
33454;BME280;39400;49.744;7.012;2022-08-19T01:32:15;95737.38;;;18.76;100.00
33454;BME280;39400;49.744;7.012;2022-08-19T01:35:02;95740.94;;;18.77;100.00
33454;BME280;39400;49.744;7.012;2022-08-19T01:37:40;95744.25;;;18.85;100.00
33454;BME280;39400;49.744;7.012;2022-08-19T01:40:09;95751.25;;;18.89;100.00
33454;BME280;39400;49.744;7.012;2022-08-19T01:42:36;95735.69;;;18.79;100.00
33454;BME280;39400;49.744;7.012;2022-08-19T01:45:05;95740.44;;;18.91;100.00
33454;BME280;39400;49.744;7.012;2022-08-19T01:47:35;95744.13;;;18.88;100.00
33454;BME280;39400;49.744;7.012;2022-08-19T01:50:05;95736.34;;;18.83;100.00
33454;BME280;39400;49.744;7.012;2022-08-19T01:52:35;95739.22;;;18.58;100.00
33454;BME280;39400;49.744;7.012;2022-08-19T01:55:05;95733.53;;;18.61;100.00
33454;BME280;39400;49.744;7.012;2022-08-19T01:57:33;95734.28;;;18.74;100.00
33454;BME280;39400;49.744;7.012;2022-08-19T02:00:01;95744.44;;;18.56;100.00
33454;BME280;39400;49.744;7.012;2022-08-19T02:02:37;95735.28;;;18.33;100.00
33454;BME280;39400;49.744;7.012;2022-08-19T02:05:05;95749.13;;;18.59;100.00
33454;BME280;39400;49.744;7.012;2022-08-19T02:07:38;95742.13;;;18.54;100.00
33454;BME280;39400;49.744;7.012;2022-08-19T02:10:17;95742.31;;;18.25;100.00
33454;BME280;39400;49.744;7.012;2022-08-19T02:12:45;95739.97;;;18.36;100.00
33454;BME280;39400;49.744;7.012;2022-08-19T02:15:13;95736.38;;;18.36;100.00
33454;BME280;39400;49.744;7.012;2022-08-19T02:17:42;95743.81;;;18.51;100.00
33454;BME280;39400;49.744;7.012;2022-08-19T02:20:09;95735.28;;;18.33;100.00
33454;BME280;39400;49.744;7.012;2022-08-19T02:22:39;95742.88;;;18.33;100.00
33454;BME280;39400;49.744;7.012;2022-08-19T02:25:10;95746.84;;;18.44;100.00
33454;BME280;39400;49.744;7.012;2022-08-19T02:27:38;95754.34;;;18.22;100.00
33454;BME280;39400;49.744;7.012;2022-08-19T02:30:07;95755.25;;;18.19;100.00
33454;BME280;39400;49.744;7.012;2022-08-19T02:32:40;95750.91;;;18.18;100.00
33454;BME280;39400;49.744;7.012;2022-08-19T02:35:12;95756.00;;;18.32;100.00
33454;BME280;39400;49.744;7.012;2022-08-19T02:37:41;95762.53;;;18.38;100.00
33454;BME280;39400;49.744;7.012;2022-08-19T02:40:28;95756.72;;;18.45;100.00
33454;BME280;39400;49.744;7.012;2022-08-19T02:42:55;95751.16;;;18.45;100.00
33454;BME280;39400;49.744;7.012;2022-08-19T02:45:22;95749.78;;;18.28;100.00
33454;BME280;39400;49.744;7.012;2022-08-19T02:47:50;95745.44;;;18.27;100.00
33454;BME280;39400;49.744;7.012;2022-08-19T02:50:17;95759.94;;;18.09;100.00
33454;BME280;39400;49.744;7.012;2022-08-19T02:52:45;95756.16;;;18.16;100.00
33454;BME280;39400;49.744;7.012;2022-08-19T02:55:12;95761.00;;;17.77;100.00
33454;BME280;39400;49.744;7.012;2022-08-19T02:57:39;95763.28;;;17.40;100.00
33454;BME280;39400;49.744;7.012;2022-08-19T03:00:08;95772.84;;;17.39;100.00
33454;BME280;39400;49.744;7.012;2022-08-19T03:02:40;95765.75;;;17.64;100.00
33454;BME280;39400;49.744;7.012;2022-08-19T03:05:09;95763.50;;;17.58;100.00
33454;BME280;39400;49.744;7.012;2022-08-19T03:07:36;95766.41;;;17.68;100.00
33454;BME280;39400;49.744;7.012;2022-08-19T03:10:04;95764.97;;;17.76;100.00
33454;BME280;39400;49.744;7.012;2022-08-19T03:12:35;95762.09;;;17.79;100.00
33454;BME280;39400;49.744;7.012;2022-08-19T03:15:04;95764.63;;;17.74;100.00
33454;BME280;39400;49.744;7.012;2022-08-19T03:17:32;95758.88;;;17.81;100.00
33454;BME280;39400;49.744;7.012;2022-08-19T03:20:00;95765.53;;;17.83;100.00
33454;BME280;39400;49.744;7.012;2022-08-19T03:22:27;95761.31;;;17.79;100.00
33454;BME280;39400;49.744;7.012;2022-08-19T03:24:56;95770.88;;;17.78;100.00
33454;BME280;39400;49.744;7.012;2022-08-19T03:27:24;95774.66;;;17.84;100.00
33454;BME280;39400;49.744;7.012;2022-08-19T03:29:56;95774.09;;;17.89;100.00
33454;BME280;39400;49.744;7.012;2022-08-19T03:32:23;95775.09;;;17.95;100.00
33454;BME280;39400;49.744;7.012;2022-08-19T03:34:59;95775.41;;;17.97;100.00
33454;BME280;39400;49.744;7.012;2022-08-19T03:37:26;95773.75;;;17.87;100.00
33454;BME280;39400;49.744;7.012;2022-08-19T03:39:53;95772.41;;;17.53;100.00
33454;BME280;39400;49.744;7.012;2022-08-19T03:42:20;95769.81;;;17.33;100.00
33454;BME280;39400;49.744;7.012;2022-08-19T03:45:05;95763.75;;;17.64;100.00
33454;BME280;39400;49.744;7.012;2022-08-19T03:47:34;95769.19;;;17.68;100.00
33454;BME280;39400;49.744;7.012;2022-08-19T03:50:01;95764.63;;;17.74;100.00
33454;BME280;39400;49.744;7.012;2022-08-19T03:52:29;95770.72;;;17.56;100.00
33454;BME280;39400;49.744;7.012;2022-08-19T03:54:56;95772.97;;;17.61;100.00
33454;BME280;39400;49.744;7.012;2022-08-19T03:57:23;95763.06;;;17.73;100.00
33454;BME280;39400;49.744;7.012;2022-08-19T03:59:58;95772.44;;;17.79;100.00
33454;BME280;39400;49.744;7.012;2022-08-19T04:02:40;95772.84;;;17.65;100.00
33454;BME280;39400;49.744;7.012;2022-08-19T04:05:08;95777.31;;;17.75;100.00
33454;BME280;39400;49.744;7.012;2022-08-19T04:07:35;95781.91;;;17.81;100.00
33454;BME280;39400;49.744;7.012;2022-08-19T04:10:03;95782.19;;;17.71;100.00
33454;BME280;39400;49.744;7.012;2022-08-19T04:12:30;95781.41;;;17.57;100.00
33454;BME280;39400;49.744;7.012;2022-08-19T04:14:57;95789.97;;;17.50;100.00
33454;BME280;39400;49.744;7.012;2022-08-19T04:17:25;95782.97;;;17.58;100.00
33454;BME280;39400;49.744;7.012;2022-08-19T04:19:52;95793.88;;;17.66;100.00
33454;BME280;39400;49.744;7.012;2022-08-19T04:22:19;95792.16;;;17.30;100.00
33454;BME280;39400;49.744;7.012;2022-08-19T04:24:46;95784.06;;;17.48;100.00
33454;BME280;39400;49.744;7.012;2022-08-19T04:27:14;95782.88;;;17.49;100.00
33454;BME280;39400;49.744;7.012;2022-08-19T04:29:42;95787.06;;;17.41;100.00
33454;BME280;39400;49.744;7.012;2022-08-19T04:32:10;95785.06;;;17.54;100.00
33454;BME280;39400;49.744;7.012;2022-08-19T04:34:37;95780.97;;;17.59;100.00
33454;BME280;39400;49.744;7.012;2022-08-19T04:37:26;95786.94;;;17.45;100.00
33454;BME280;39400;49.744;7.012;2022-08-19T04:40:03;95786.59;;;17.30;100.00
33454;BME280;39400;49.744;7.012;2022-08-19T04:42:49;95784.53;;;17.47;100.00
33454;BME280;39400;49.744;7.012;2022-08-19T04:45:16;95789.19;;;17.50;100.00
33454;BME280;39400;49.744;7.012;2022-08-19T04:47:44;95798.97;;;17.54;100.00
33454;BME280;39400;49.744;7.012;2022-08-19T04:50:26;95788.81;;;17.35;100.00
33454;BME280;39400;49.744;7.012;2022-08-19T04:52:54;95786.28;;;17.41;100.00
33454;BME280;39400;49.744;7.012;2022-08-19T04:55:23;95787.72;;;17.45;100.00
33454;BME280;39400;49.744;7.012;2022-08-19T04:57:53;95792.88;;;17.59;100.00
33454;BME280;39400;49.744;7.012;2022-08-19T05:00:21;95785.44;;;17.56;100.00
33454;BME280;39400;49.744;7.012;2022-08-19T05:02:48;95799.31;;;17.56;100.00
33454;BME280;39400;49.744;7.012;2022-08-19T05:05:16;95793.75;;;17.56;100.00
33454;BME280;39400;49.744;7.012;2022-08-19T05:07:44;95791.22;;;17.75;100.00
33454;BME280;39400;49.744;7.012;2022-08-19T05:10:11;95791.56;;;17.90;100.00
33454;BME280;39400;49.744;7.012;2022-08-19T05:12:39;95793.34;;;17.96;100.00
33454;BME280;39400;49.744;7.012;2022-08-19T05:15:07;95790.91;;;17.98;100.00
33454;BME280;39400;49.744;7.012;2022-08-19T05:17:35;95793.56;;;17.89;100.00
33454;BME280;39400;49.744;7.012;2022-08-19T05:20:06;95795.81;;;17.94;100.00
33454;BME280;39400;49.744;7.012;2022-08-19T05:22:53;95790.56;;;17.96;100.00
33454;BME280;39400;49.744;7.012;2022-08-19T05:25:21;95794.78;;;18.14;100.00
33454;BME280;39400;49.744;7.012;2022-08-19T05:27:48;95795.81;;;17.94;100.00
33454;BME280;39400;49.744;7.012;2022-08-19T05:30:16;95795.53;;;18.14;100.00
33454;BME280;39400;49.744;7.012;2022-08-19T05:32:44;95800.44;;;17.97;100.00
33454;BME280;39400;49.744;7.012;2022-08-19T05:35:11;95792.56;;;17.96;100.00
33454;BME280;39400;49.744;7.012;2022-08-19T05:37:39;95799.06;;;18.40;100.00
33454;BME280;39400;49.744;7.012;2022-08-19T05:40:10;95797.28;;;18.46;100.00
33454;BME280;39400;49.744;7.012;2022-08-19T05:42:38;95795.47;;;18.52;100.00
33454;BME280;39400;49.744;7.012;2022-08-19T05:45:06;95797.56;;;18.61;100.00
33454;BME280;39400;49.744;7.012;2022-08-19T05:47:33;95795.50;;;18.87;100.00
33454;BME280;39400;49.744;7.012;2022-08-19T05:50:00;95804.81;;;18.59;100.00
33454;BME280;39400;49.744;7.012;2022-08-19T05:52:31;95796.63;;;18.77;100.00
33454;BME280;39400;49.744;7.012;2022-08-19T05:54:59;95804.09;;;18.80;100.00
33454;BME280;39400;49.744;7.012;2022-08-19T05:57:26;95806.22;;;18.76;100.00
33454;BME280;39400;49.744;7.012;2022-08-19T05:59:56;95811.16;;;18.72;100.00
33454;BME280;39400;49.744;7.012;2022-08-19T06:02:28;95820.50;;;18.65;100.00
33454;BME280;39400;49.744;7.012;2022-08-19T06:04:57;95813.69;;;18.79;100.00
33454;BME280;39400;49.744;7.012;2022-08-19T06:07:25;95823.28;;;18.78;100.00
33454;BME280;39400;49.744;7.012;2022-08-19T06:09:52;95818.75;;;18.93;100.00
33454;BME280;39400;49.744;7.012;2022-08-19T06:12:28;95816.56;;;18.88;100.00
33454;BME280;39400;49.744;7.012;2022-08-19T06:15:01;95816.72;;;19.07;100.00
33454;BME280;39400;49.744;7.012;2022-08-19T06:17:29;95829.66;;;19.00;100.00
33454;BME280;39400;49.744;7.012;2022-08-19T06:19:58;95833.84;;;18.83;100.00
33454;BME280;39400;49.744;7.012;2022-08-19T06:22:26;95831.47;;;18.94;100.00
33454;BME280;39400;49.744;7.012;2022-08-19T06:24:55;95842.31;;;18.67;100.00
33454;BME280;39400;49.744;7.012;2022-08-19T06:27:22;95845.09;;;18.67;100.00
33454;BME280;39400;49.744;7.012;2022-08-19T06:29:50;95844.47;;;18.63;100.00
33454;BME280;39400;49.744;7.012;2022-08-19T06:32:17;95839.78;;;18.60;100.00
33454;BME280;39400;49.744;7.012;2022-08-19T06:34:46;95849.19;;;18.40;100.00
33454;BME280;39400;49.744;7.012;2022-08-19T06:37:13;95855.53;;;18.41;100.00
33454;BME280;39400;49.744;7.012;2022-08-19T06:39:42;95858.53;;;18.46;100.00
33454;BME280;39400;49.744;7.012;2022-08-19T06:42:10;95863.19;;;18.49;100.00
33454;BME280;39400;49.744;7.012;2022-08-19T06:44:41;95867.38;;;18.67;100.00
33454;BME280;39400;49.744;7.012;2022-08-19T06:47:18;95860.53;;;18.46;100.00
33454;BME280;39400;49.744;7.012;2022-08-19T06:49:59;95875.88;;;18.63;100.00
33454;BME280;39400;49.744;7.012;2022-08-19T06:52:35;95886.47;;;18.56;100.00
33454;BME280;39400;49.744;7.012;2022-08-19T06:55:05;95892.50;;;18.54;100.00
33454;BME280;39400;49.744;7.012;2022-08-19T06:57:33;95890.91;;;18.66;100.00
33454;BME280;39400;49.744;7.012;2022-08-19T07:00:00;95890.81;;;18.57;100.00
33454;BME280;39400;49.744;7.012;2022-08-19T07:02:28;95892.38;;;18.58;100.00
33454;BME280;39400;49.744;7.012;2022-08-19T07:04:55;95897.38;;;18.75;100.00
33454;BME280;39400;49.744;7.012;2022-08-19T07:07:25;95901.28;;;18.65;100.00
33454;BME280;39400;49.744;7.012;2022-08-19T07:09:52;95897.53;;;18.46;100.00
33454;BME280;39400;49.744;7.012;2022-08-19T07:12:29;95909.97;;;18.80;100.00
33454;BME280;39400;49.744;7.012;2022-08-19T07:14:58;95915.22;;;18.78;100.00
33454;BME280;39400;49.744;7.012;2022-08-19T07:17:26;95917.44;;;18.58;100.00
33454;BME280;39400;49.744;7.012;2022-08-19T07:19:53;95902.63;;;18.61;100.00
33454;BME280;39400;49.744;7.012;2022-08-19T07:22:22;95896.59;;;18.88;100.00
33454;BME280;39400;49.744;7.012;2022-08-19T07:24:51;95906.44;;;19.01;100.00
33454;BME280;39400;49.744;7.012;2022-08-19T07:27:18;95914.09;;;18.88;100.00
33454;BME280;39400;49.744;7.012;2022-08-19T07:29:52;95916.28;;;18.93;100.00
33454;BME280;39400;49.744;7.012;2022-08-19T07:32:24;95911.81;;;18.96;100.00
33454;BME280;39400;49.744;7.012;2022-08-19T07:34:55;95910.31;;;19.17;100.00
33454;BME280;39400;49.744;7.012;2022-08-19T07:37:24;95917.28;;;18.99;100.00
33454;BME280;39400;49.744;7.012;2022-08-19T07:40:00;95905.00;;;19.10;100.00
33454;BME280;39400;49.744;7.012;2022-08-19T07:42:28;95910.66;;;19.19;100.00
33454;BME280;39400;49.744;7.012;2022-08-19T07:44:57;95921.31;;;18.98;100.00
33454;BME280;39400;49.744;7.012;2022-08-19T07:47:25;95912.50;;;19.22;100.00
33454;BME280;39400;49.744;7.012;2022-08-19T07:50:15;95909.72;;;19.22;100.00
33454;BME280;39400;49.744;7.012;2022-08-19T07:52:42;95907.53;;;19.17;100.00
33454;BME280;39400;49.744;7.012;2022-08-19T07:55:18;95905.47;;;19.30;100.00
33454;BME280;39400;49.744;7.012;2022-08-19T07:58:05;95908.31;;;19.17;100.00
33454;BME280;39400;49.744;7.012;2022-08-19T08:00:33;95907.50;;;19.30;100.00
33454;BME280;39400;49.744;7.012;2022-08-19T08:03:00;95902.44;;;19.59;100.00
33454;BME280;39400;49.744;7.012;2022-08-19T08:05:28;95904.31;;;19.62;100.00
33454;BME280;39400;49.744;7.012;2022-08-19T08:08:13;95903.63;;;19.71;100.00
33454;BME280;39400;49.744;7.012;2022-08-19T08:10:53;95908.94;;;19.78;100.00
33454;BME280;39400;49.744;7.012;2022-08-19T08:13:23;95907.97;;;19.72;100.00
33454;BME280;39400;49.744;7.012;2022-08-19T08:15:50;95907.50;;;19.95;100.00
33454;BME280;39400;49.744;7.012;2022-08-19T08:18:20;95898.09;;;20.11;100.00
33454;BME280;39400;49.744;7.012;2022-08-19T08:20:54;95911.78;;;19.87;100.00
33454;BME280;39400;49.744;7.012;2022-08-19T08:23:22;95910.88;;;19.90;100.00
33454;BME280;39400;49.744;7.012;2022-08-19T08:25:51;95914.09;;;20.11;100.00
33454;BME280;39400;49.744;7.012;2022-08-19T08:28:19;95921.63;;;20.32;100.00
33454;BME280;39400;49.744;7.012;2022-08-19T08:30:47;95920.91;;;20.41;100.00
33454;BME280;39400;49.744;7.012;2022-08-19T08:33:21;95923.16;;;20.24;100.00
33454;BME280;39400;49.744;7.012;2022-08-19T08:36:08;95926.00;;;20.33;100.00
33454;BME280;39400;49.744;7.012;2022-08-19T08:38:36;95919.31;;;20.40;100.00
33454;BME280;39400;49.744;7.012;2022-08-19T08:41:40;95918.16;;;20.50;100.00
33454;BME280;39400;49.744;7.012;2022-08-19T08:44:15;95927.75;;;20.89;100.00
33454;BME280;39400;49.744;7.012;2022-08-19T08:46:54;95914.66;;;20.77;100.00
33454;BME280;39400;49.744;7.012;2022-08-19T08:49:43;95912.81;;;20.83;100.00
33454;BME280;39400;49.744;7.012;2022-08-19T08:52:22;95910.06;;;20.93;99.93
33454;BME280;39400;49.744;7.012;2022-08-19T08:54:59;95905.56;;;21.04;96.37
33454;BME280;39400;49.744;7.012;2022-08-19T09:00:27;95901.66;;;21.02;95.49
33454;BME280;39400;49.744;7.012;2022-08-19T09:02:58;95902.00;;;21.04;94.64
33454;BME280;39400;49.744;7.012;2022-08-19T09:05:42;95888.31;;;21.06;94.23
33454;BME280;39400;49.744;7.012;2022-08-19T09:08:33;95891.31;;;21.39;92.66
33454;BME280;39400;49.744;7.012;2022-08-19T09:11:10;95901.75;;;21.48;92.66
33454;BME280;39400;49.744;7.012;2022-08-19T09:16:27;95899.22;;;21.77;91.26
33454;BME280;39400;49.744;7.012;2022-08-19T09:19:01;95893.22;;;22.03;88.58
33454;BME280;39400;49.744;7.012;2022-08-19T09:21:32;95893.81;;;21.55;87.50
33454;BME280;39400;49.744;7.012;2022-08-19T09:24:02;95888.28;;;21.89;82.63
33454;BME280;39400;49.744;7.012;2022-08-19T09:26:32;95889.88;;;21.90;88.83
33454;BME280;39400;49.744;7.012;2022-08-19T09:29:14;95893.00;;;21.73;88.13
33454;BME280;39400;49.744;7.012;2022-08-19T09:31:41;95899.81;;;21.81;87.02
33454;BME280;39400;49.744;7.012;2022-08-19T09:34:08;95904.50;;;21.66;85.44
33454;BME280;39400;49.744;7.012;2022-08-19T09:36:48;95901.34;;;22.01;84.45
33454;BME280;39400;49.744;7.012;2022-08-19T09:39:21;95903.22;;;22.46;84.88
33454;BME280;39400;49.744;7.012;2022-08-19T09:41:49;95901.16;;;22.56;83.31
33454;BME280;39400;49.744;7.012;2022-08-19T09:44:17;95904.41;;;22.21;81.99
33454;BME280;39400;49.744;7.012;2022-08-19T09:46:48;95902.56;;;22.09;81.63
33454;BME280;39400;49.744;7.012;2022-08-19T09:49:17;95909.00;;;22.43;80.88
33454;BME280;39400;49.744;7.012;2022-08-19T09:51:45;95911.47;;;22.50;81.06
33454;BME280;39400;49.744;7.012;2022-08-19T09:54:17;95908.09;;;22.70;80.14
33454;BME280;39400;49.744;7.012;2022-08-19T09:56:54;95893.22;;;22.88;79.89
33454;BME280;39400;49.744;7.012;2022-08-19T09:59:22;95895.38;;;22.93;79.23
33454;BME280;39400;49.744;7.012;2022-08-19T10:01:49;95897.00;;;22.75;75.74
33454;BME280;39400;49.744;7.012;2022-08-19T10:04:20;95897.53;;;22.65;78.71
33454;BME280;39400;49.744;7.012;2022-08-19T10:07:10;95893.75;;;22.44;80.12
33454;BME280;39400;49.744;7.012;2022-08-19T10:09:39;95899.75;;;22.85;78.62
33454;BME280;39400;49.744;7.012;2022-08-19T10:12:08;95892.25;;;22.91;77.18
33454;BME280;39400;49.744;7.012;2022-08-19T10:14:37;95894.03;;;22.79;76.67
33454;BME280;39400;49.744;7.012;2022-08-19T10:17:05;95891.56;;;23.05;76.26
33454;BME280;39400;49.744;7.012;2022-08-19T10:19:45;95889.94;;;23.13;74.49
33454;BME280;39400;49.744;7.012;2022-08-19T10:22:21;95892.09;;;23.18;74.47
33454;BME280;39400;49.744;7.012;2022-08-19T10:24:51;95885.53;;;23.21;75.90
33454;BME280;39400;49.744;7.012;2022-08-19T10:27:19;95884.53;;;23.48;74.76
33454;BME280;39400;49.744;7.012;2022-08-19T10:29:46;95875.03;;;23.46;74.95
33454;BME280;39400;49.744;7.012;2022-08-19T10:32:15;95874.66;;;23.53;74.19
33454;BME280;39400;49.744;7.012;2022-08-19T10:34:42;95866.00;;;23.03;73.19
33454;BME280;39400;49.744;7.012;2022-08-19T10:37:16;95874.31;;;23.21;71.90
33454;BME280;39400;49.744;7.012;2022-08-19T10:39:58;95869.81;;;23.39;69.98
33454;BME280;39400;49.744;7.012;2022-08-19T10:42:25;95873.75;;;23.86;70.22
33454;BME280;39400;49.744;7.012;2022-08-19T10:44:52;95874.53;;;24.01;70.89
33454;BME280;39400;49.744;7.012;2022-08-19T10:47:19;95878.69;;;23.37;72.20
33454;BME280;39400;49.744;7.012;2022-08-19T10:49:53;95875.56;;;23.59;72.91
33454;BME280;39400;49.744;7.012;2022-08-19T10:52:44;95884.84;;;23.65;69.38
33454;BME280;39400;49.744;7.012;2022-08-19T10:55:21;95871.13;;;23.29;69.68
33454;BME280;39400;49.744;7.012;2022-08-19T10:58:18;95876.28;;;23.06;69.85
33454;BME280;39400;49.744;7.012;2022-08-19T11:00:57;95875.31;;;23.09;69.71
33454;BME280;39400;49.744;7.012;2022-08-19T11:03:25;95870.78;;;22.88;70.61
33454;BME280;39400;49.744;7.012;2022-08-19T11:06:03;95874.09;;;23.49;69.15
33454;BME280;39400;49.744;7.012;2022-08-19T11:08:31;95867.16;;;23.89;68.47
33454;BME280;39400;49.744;7.012;2022-08-19T11:11:00;95858.63;;;23.68;66.90
33454;BME280;39400;49.744;7.012;2022-08-19T11:13:32;95873.16;;;23.82;66.78
33454;BME280;39400;49.744;7.012;2022-08-19T11:16:20;95883.59;;;23.27;65.24
33454;BME280;39400;49.744;7.012;2022-08-19T11:18:51;95864.09;;;23.48;66.43
33454;BME280;39400;49.744;7.012;2022-08-19T11:21:24;95857.47;;;23.90;64.39
33454;BME280;39400;49.744;7.012;2022-08-19T11:23:54;95847.19;;;24.16;64.94
33454;BME280;39400;49.744;7.012;2022-08-19T11:26:23;95854.84;;;24.16;64.10
33454;BME280;39400;49.744;7.012;2022-08-19T11:28:51;95855.34;;;24.14;62.78
33454;BME280;39400;49.744;7.012;2022-08-19T11:31:24;95863.94;;;24.40;63.33
33454;BME280;39400;49.744;7.012;2022-08-19T11:34:00;95870.50;;;24.52;59.12
33454;BME280;39400;49.744;7.012;2022-08-19T11:36:29;95866.59;;;24.14;59.27
33454;BME280;39400;49.744;7.012;2022-08-19T11:38:57;95864.66;;;24.06;59.14
33454;BME280;39400;49.744;7.012;2022-08-19T11:41:24;95855.91;;;24.04;59.68
33454;BME280;39400;49.744;7.012;2022-08-19T11:43:53;95854.75;;;24.10;59.62
33454;BME280;39400;49.744;7.012;2022-08-19T11:46:24;95845.97;;;24.38;58.46
33454;BME280;39400;49.744;7.012;2022-08-19T11:48:52;95844.97;;;24.71;58.52
33454;BME280;39400;49.744;7.012;2022-08-19T11:51:21;95844.41;;;25.07;57.01
33454;BME280;39400;49.744;7.012;2022-08-19T11:53:49;95844.16;;;25.26;57.26
33454;BME280;39400;49.744;7.012;2022-08-19T11:56:18;95843.84;;;25.44;56.55
33454;BME280;39400;49.744;7.012;2022-08-19T11:58:45;95844.94;;;25.52;56.40
33454;BME280;39400;49.744;7.012;2022-08-19T12:01:15;95841.19;;;25.14;55.45
33454;BME280;39400;49.744;7.012;2022-08-19T12:03:43;95835.44;;;25.24;56.42
33454;BME280;39400;49.744;7.012;2022-08-19T12:06:16;95846.41;;;25.68;56.03
33454;BME280;39400;49.744;7.012;2022-08-19T12:08:44;95854.75;;;24.96;56.34
33454;BME280;39400;49.744;7.012;2022-08-19T12:11:12;95842.75;;;25.36;55.84
33454;BME280;39400;49.744;7.012;2022-08-19T12:13:40;95847.09;;;24.96;54.60
33454;BME280;39400;49.744;7.012;2022-08-19T12:16:16;95846.22;;;24.90;55.33
33454;BME280;39400;49.744;7.012;2022-08-19T12:18:44;95842.38;;;24.52;57.06
33454;BME280;39400;49.744;7.012;2022-08-19T12:21:14;95849.50;;;24.33;56.57
33454;BME280;39400;49.744;7.012;2022-08-19T12:23:43;95843.66;;;24.51;57.53
33454;BME280;39400;49.744;7.012;2022-08-19T12:26:12;95836.94;;;24.63;58.41
33454;BME280;39400;49.744;7.012;2022-08-19T12:28:39;95848.63;;;24.97;57.74
33454;BME280;39400;49.744;7.012;2022-08-19T12:31:06;95845.81;;;25.38;56.63
33454;BME280;39400;49.744;7.012;2022-08-19T12:33:34;95846.84;;;25.61;56.07
33454;BME280;39400;49.744;7.012;2022-08-19T12:36:06;95837.00;;;25.77;53.81
33454;BME280;39400;49.744;7.012;2022-08-19T12:38:35;95838.06;;;25.79;53.98
33454;BME280;39400;49.744;7.012;2022-08-19T12:41:03;95833.88;;;25.23;54.00
33454;BME280;39400;49.744;7.012;2022-08-19T12:43:34;95834.34;;;25.42;53.75
33454;BME280;39400;49.744;7.012;2022-08-19T12:46:02;95836.69;;;25.23;53.53
33454;BME280;39400;49.744;7.012;2022-08-19T12:48:34;95833.75;;;25.11;54.37
33454;BME280;39400;49.744;7.012;2022-08-19T12:51:14;95834.84;;;25.40;54.62
33454;BME280;39400;49.744;7.012;2022-08-19T12:53:42;95832.25;;;25.62;54.83
33454;BME280;39400;49.744;7.012;2022-08-19T12:56:10;95827.16;;;25.67;54.39
33454;BME280;39400;49.744;7.012;2022-08-19T12:58:38;95827.53;;;25.74;54.40
33454;BME280;39400;49.744;7.012;2022-08-19T13:01:08;95831.50;;;25.16;54.44
33454;BME280;39400;49.744;7.012;2022-08-19T13:03:35;95839.47;;;24.82;54.82
33454;BME280;39400;49.744;7.012;2022-08-19T13:06:07;95831.06;;;25.02;54.25
33454;BME280;39400;49.744;7.012;2022-08-19T13:08:36;95835.00;;;25.31;54.07
33454;BME280;39400;49.744;7.012;2022-08-19T13:11:12;95843.00;;;25.38;53.49
33454;BME280;39400;49.744;7.012;2022-08-19T13:13:41;95829.56;;;25.07;54.04
33454;BME280;39400;49.744;7.012;2022-08-19T13:16:10;95830.16;;;24.90;53.81
33454;BME280;39400;49.744;7.012;2022-08-19T13:18:39;95833.88;;;25.23;52.46
33454;BME280;39400;49.744;7.012;2022-08-19T13:21:08;95845.38;;;25.45;51.25